Terminal Aerodrome Forecast
Issued by NWS Bismarck, ND

Home | Current Version | Previous Version | Graphics & Text | Print | Product List | Glossary On
Versions: 1 2 3 4 5 6 7 8 9 10 11 12 13 14 15 16 17 18 19 20 21 22
475
FTUS43 KBIS 102337
TAFISN
TAF
KISN 102337Z 1100/1124 02008KT P6SM OVC012
     FM110900 05005KT 3SM -SN BR OVC008
     FM111200 09005KT 2SM -SN BR OVC008
     FM111800 09005KT 4SM -SN BR OVC010=

USA.gov is the U.S. government's official web portal to all federal, state and local government web resources and services.